createdAt,value
2022-10-24T00:01:42.571Z,100311.19
2022-10-24T00:04:11.799Z,100305.03
2022-10-24T00:06:41.134Z,100303.13
2022-10-24T00:09:09.642Z,100298.28
2022-10-24T00:11:38.647Z,100301.22
2022-10-24T00:14:06.617Z,100305.84
2022-10-24T00:16:35.756Z,100304.41
2022-10-24T00:19:04.747Z,100312.22
2022-10-24T00:21:34.135Z,100307.78
2022-10-24T00:24:02.045Z,100308.22
2022-10-24T00:26:30.283Z,100304.59
2022-10-24T00:28:58.510Z,100318.34
2022-10-24T00:31:26.574Z,100301.66
2022-10-24T00:33:56.652Z,100302.09
2022-10-24T00:36:25.139Z,100301.44
2022-10-24T00:38:55.762Z,100298.69
2022-10-24T00:41:26.952Z,100301.25
2022-10-24T00:44:17.173Z,100298.28
2022-10-24T00:46:48.119Z,100298.50
2022-10-24T00:49:19.159Z,100300.38
2022-10-24T00:51:50.206Z,100299.31
2022-10-24T00:54:20.581Z,100293.44
2022-10-24T00:56:57.886Z,100295.53
2022-10-24T00:59:27.079Z,100300.81
2022-10-24T01:01:55.854Z,100299.53
2022-10-24T01:04:23.854Z,100289.81
2022-10-24T01:07:03.100Z,100278.63
2022-10-24T01:09:47.933Z,100285.59
2022-10-24T01:12:25.989Z,100288.09
2022-10-24T01:15:01.046Z,100277.34
2022-10-24T01:17:36.603Z,100288.97
2022-10-24T01:20:31.031Z,100292.38
2022-10-24T01:23:24.091Z,100279.03
2022-10-24T01:26:08.159Z,100277.34
2022-10-24T01:28:44.509Z,100270.41
2022-10-24T01:31:21.841Z,100280.09
2022-10-24T01:33:55.042Z,100267.19
2022-10-24T01:36:32.213Z,100258.28
2022-10-24T01:39:04.969Z,100253.47
2022-10-24T01:41:34.299Z,100258.72
2022-10-24T01:44:05.957Z,100249.88
2022-10-24T01:46:38.634Z,100249.25
2022-10-24T01:49:11.524Z,100249.25
2022-10-24T01:51:40.885Z,100235.50
2022-10-24T01:54:10.945Z,100235.50
2022-10-24T01:56:39.618Z,100243.94
2022-10-24T01:59:09.192Z,100239.72
2022-10-24T02:01:40.635Z,100231.91
2022-10-24T02:04:12.599Z,100236.31
2022-10-24T02:06:42.866Z,100227.88
2022-10-24T02:09:15.342Z,100226.81
2022-10-24T02:11:45.696Z,100214.16
2022-10-24T02:14:18.170Z,100211.19
2022-10-24T02:16:48.146Z,100211.88
2022-10-24T02:19:16.737Z,100211.00
2022-10-24T02:21:52.611Z,100201.28
2022-10-24T02:24:24.655Z,100200.38
2022-10-24T02:26:57.413Z,100193.16
2022-10-24T02:29:28.728Z,100194.66
2022-10-24T02:31:59.892Z,100189.56
2022-10-24T02:34:33.669Z,100184.31
2022-10-24T02:37:02.679Z,100186.22
2022-10-24T02:39:32.075Z,100182.06
2022-10-24T02:42:00.918Z,100171.47
2022-10-24T02:44:30.525Z,100170.97
2022-10-24T02:47:02.878Z,100159.97
2022-10-24T02:49:31.066Z,100158.66
2022-10-24T02:52:00.353Z,100154.06
2022-10-24T02:54:28.434Z,100146.69
2022-10-24T02:57:00.973Z,100143.97
2022-10-24T02:59:28.896Z,100150.06
2022-10-24T03:01:56.974Z,100148.34
2022-10-24T03:04:26.331Z,100150.09
2022-10-24T03:06:54.447Z,100141.16
2022-10-24T03:09:22.373Z,100135.00
2022-10-24T03:11:50.406Z,100139.94
2022-10-24T03:14:18.340Z,100137.06
2022-10-24T03:16:46.285Z,100140.78
2022-10-24T03:19:14.259Z,100143.13
2022-10-24T03:21:43.477Z,100140.97
2022-10-24T03:24:11.565Z,100130.78
2022-10-24T03:26:39.605Z,100132.72
2022-10-24T03:29:07.933Z,100132.97
2022-10-24T03:31:36.529Z,100134.84
2022-10-24T03:34:04.673Z,100127.50
2022-10-24T03:36:32.669Z,100126.38
2022-10-24T03:39:01.913Z,100125.72
2022-10-24T03:41:30.056Z,100123.44
2022-10-24T03:43:58.048Z,100127.66
2022-10-24T03:46:25.963Z,100141.16
2022-10-24T03:48:53.841Z,100139.09
2022-10-24T03:51:21.833Z,100142.44
2022-10-24T03:53:49.773Z,100138.22
2022-10-24T03:56:19.026Z,100135.88
2022-10-24T03:58:46.945Z,100133.31
2022-10-24T04:01:17.683Z,100131.19
2022-10-24T04:03:45.740Z,100135.50
2022-10-24T04:06:14.613Z,100136.44
2022-10-24T04:08:42.762Z,100135.78
2022-10-24T04:11:11.085Z,100134.66
2022-10-24T04:13:40.750Z,100127.50
2022-10-24T04:16:09.742Z,100127.09
2022-10-24T04:18:37.902Z,100138.66
2022-10-24T04:21:06.781Z,100126.78
2022-10-24T04:23:40.868Z,100129.25
2022-10-24T04:26:09.145Z,100128.00
2022-10-24T04:28:37.204Z,100133.19
2022-10-24T04:31:07.148Z,100133.66
2022-10-24T04:33:36.301Z,100129.06
2022-10-24T04:36:04.621Z,100123.19
2022-10-24T04:38:33.525Z,100119.13
2022-10-24T04:41:02.273Z,100119.09
2022-10-24T04:43:30.328Z,100113.16
2022-10-24T04:45:58.396Z,100114.28
2022-10-24T04:48:27.689Z,100120.84
2022-10-24T04:50:55.789Z,100109.88
2022-10-24T04:53:24.042Z,100119.13
2022-10-24T04:55:52.149Z,100119.16
2022-10-24T04:58:20.932Z,100118.56
2022-10-24T05:00:50.240Z,100124.25
2022-10-24T05:03:18.479Z,100115.41
2022-10-24T05:05:48.377Z,100110.91
2022-10-24T05:08:17.093Z,100114.28
2022-10-24T05:10:45.444Z,100105.19
2022-10-24T05:13:13.343Z,100115.09
2022-10-24T05:15:42.065Z,100108.81
2022-10-24T05:18:12.470Z,100115.63
2022-10-24T05:23:10.517Z,100122.78
2022-10-24T05:25:38.574Z,100115.41
2022-10-24T05:28:06.673Z,100116.66
2022-10-24T05:30:34.668Z,100114.81
2022-10-24T05:33:02.951Z,100125.81
2022-10-24T05:35:30.946Z,100116.28
2022-10-24T05:37:58.928Z,100119.28
2022-10-24T05:40:28.497Z,100115.44
2022-10-24T05:42:57.785Z,100111.88
2022-10-24T05:45:25.870Z,100099.84
2022-10-24T05:47:53.818Z,100104.91
2022-10-24T05:50:21.942Z,100103.25
2022-10-24T05:52:49.930Z,100107.88
2022-10-24T05:55:18.454Z,100107.88
2022-10-24T05:57:48.330Z,100109.56
2022-10-24T06:00:18.015Z,100110.41
2022-10-24T06:05:20.005Z,100111.88
2022-10-24T06:07:48.713Z,100100.50
2022-10-24T06:10:16.833Z,100095.00
2022-10-24T06:12:45.090Z,100090.97
2022-10-24T06:15:14.957Z,100092.66
2022-10-24T06:17:43.011Z,100088.84
2022-10-24T06:20:15.227Z,100095.00
2022-10-24T06:22:45.355Z,100085.91
2022-10-24T06:25:14.057Z,100096.25
2022-10-24T06:27:42.861Z,100093.09
2022-10-24T06:30:12.056Z,100092.66
2022-10-24T06:32:44.455Z,100091.81
2022-10-24T06:35:14.791Z,100089.91
2022-10-24T06:37:47.219Z,100095.59
2022-10-24T06:40:16.135Z,100101.00
2022-10-24T06:42:44.287Z,100104.69
2022-10-24T06:45:15.648Z,100100.47
2022-10-24T06:47:45.486Z,100104.06
2022-10-24T06:50:14.532Z,100111.44
2022-10-24T06:52:42.916Z,100107.41
2022-10-24T06:55:11.591Z,100115.25
2022-10-24T06:57:40.027Z,100110.16
2022-10-24T07:00:10.171Z,100110.81
2022-10-24T07:02:38.428Z,100120.06
2022-10-24T07:05:12.733Z,100121.56
2022-10-24T07:07:42.672Z,100121.78
2022-10-24T07:10:14.363Z,100120.50
2022-10-24T07:12:43.924Z,100137.22
2022-10-24T07:15:13.253Z,100135.09
2022-10-24T07:17:41.992Z,100135.72
2022-10-24T07:20:13.796Z,100138.91
2022-10-24T07:22:41.875Z,100135.53
2022-10-24T07:25:10.998Z,100129.41
2022-10-24T07:27:39.626Z,100144.16
2022-10-24T07:30:09.538Z,100139.50
2022-10-24T07:32:37.455Z,100139.69
2022-10-24T07:35:05.954Z,100130.84
2022-10-24T07:37:35.224Z,100132.94
2022-10-24T07:40:03.216Z,100125.16
2022-10-24T07:42:31.130Z,100134.47
2022-10-24T07:44:59.337Z,100114.78
2022-10-24T07:47:27.269Z,100125.94
2022-10-24T07:49:55.227Z,100128.91
2022-10-24T07:52:23.137Z,100132.50
2022-10-24T07:54:54.309Z,100137.78
2022-10-24T07:57:22.983Z,100135.00
2022-10-24T07:59:51.144Z,100131.66
2022-10-24T08:02:19.291Z,100121.09
2022-10-24T08:04:47.315Z,100120.06
2022-10-24T08:07:15.240Z,100121.47
2022-10-24T08:09:45.359Z,100125.94
2022-10-24T08:12:15.552Z,100116.06
2022-10-24T08:14:44.395Z,100121.75
2022-10-24T08:17:12.555Z,100122.13
2022-10-24T08:19:43.894Z,100108.41
2022-10-24T08:22:12.653Z,100110.84
2022-10-24T08:24:40.867Z,100121.81
2022-10-24T08:27:09.326Z,100125.59
2022-10-24T08:29:38.794Z,100112.94
2022-10-24T08:32:07.355Z,100117.16
2022-10-24T08:34:35.476Z,100118.72
2022-10-24T08:37:04.612Z,100127.63
2022-10-24T08:39:32.577Z,100137.75
2022-10-24T08:42:04.745Z,100148.03
2022-10-24T08:44:36.567Z,100162.75
2022-10-24T08:47:16.379Z,100146.22
2022-10-24T08:49:50.447Z,100145.75
2022-10-24T08:52:28.599Z,100154.22
2022-10-24T08:55:04.590Z,100153.50
2022-10-24T08:57:35.619Z,100150.13
2022-10-24T09:00:24.666Z,100176.03
2022-10-24T09:03:00.248Z,100163.13
2022-10-24T09:05:33.339Z,100148.34
2022-10-24T09:08:07.681Z,100152.75
2022-10-24T09:10:44.429Z,100162.06
2022-10-24T09:13:15.166Z,100157.56
2022-10-24T09:15:44.633Z,100167.06
2022-10-24T09:18:21.966Z,100162.22
2022-10-24T09:20:51.619Z,100166.47
2022-10-24T09:23:21.568Z,100164.84
2022-10-24T09:25:52.466Z,100158.66
2022-10-24T09:28:21.062Z,100164.41
2022-10-24T09:30:50.696Z,100174.59
2022-10-24T09:33:29.960Z,100169.31
2022-10-24T09:36:00.938Z,100175.41
2022-10-24T09:38:33.639Z,100177.94
2022-10-24T09:41:05.929Z,100191.19
2022-10-24T09:43:46.971Z,100185.28
2022-10-24T09:46:17.322Z,100203.88
2022-10-24T09:48:54.754Z,100191.19
2022-10-24T09:51:26.899Z,100200.91
2022-10-24T09:54:07.765Z,100212.72
2022-10-24T09:56:38.872Z,100206.56
2022-10-24T09:59:21.016Z,100194.13
2022-10-24T10:01:49.568Z,100193.28
2022-10-24T10:04:20.482Z,100204.44
2022-10-24T10:06:51.281Z,100199.09
2022-10-24T10:09:31.368Z,100206.44
2022-10-24T10:12:03.598Z,100217.47
2022-10-24T10:14:32.589Z,100217.06
2022-10-24T10:17:03.211Z,100224.25
2022-10-24T10:19:36.900Z,100217.53
2022-10-24T10:22:07.231Z,100223.50
2022-10-24T10:24:40.588Z,100222.44
2022-10-24T10:27:32.101Z,100231.03
2022-10-24T10:30:16.373Z,100228.81
2022-10-24T10:32:51.464Z,100244.88
2022-10-24T10:35:25.512Z,100250.13
2022-10-24T10:38:00.681Z,100256.28
2022-10-24T10:40:34.705Z,100263.25
2022-10-24T10:43:27.594Z,100271.25
2022-10-24T10:46:12.066Z,100266.19
2022-10-24T10:48:53.738Z,100264.91
2022-10-24T10:51:34.777Z,100274.84
2022-10-24T10:54:11.692Z,100272.94
2022-10-24T10:56:47.816Z,100269.97
2022-10-24T10:59:35.078Z,100264.47
2022-10-24T11:02:18.975Z,100260.88
2022-10-24T11:04:55.475Z,100275.25
2022-10-24T11:07:37.555Z,100278.22
2022-10-24T11:10:09.002Z,100268.94
2022-10-24T11:12:40.314Z,100269.19
2022-10-24T11:17:51.737Z,100262.19
2022-10-24T11:20:25.862Z,100284.38
2022-10-24T11:23:00.812Z,100268.75
2022-10-24T11:25:36.290Z,100293.88
2022-10-24T11:28:08.459Z,100281.81
2022-10-24T11:30:51.893Z,100277.13
2022-10-24T11:33:23.401Z,100281.78
2022-10-24T11:36:09.136Z,100283.50
2022-10-24T11:38:46.444Z,100287.97
2022-10-24T11:41:29.901Z,100287.97
2022-10-24T11:44:00.110Z,100298.94
2022-10-24T11:46:35.912Z,100281.84
2022-10-24T11:49:13.962Z,100299.56
2022-10-24T11:51:48.110Z,100305.47
2022-10-24T11:54:22.706Z,100302.53
2022-10-24T11:56:54.947Z,100313.72
2022-10-24T11:59:24.522Z,100322.81
2022-10-24T12:02:18.921Z,100324.50
2022-10-24T12:05:20.328Z,100309.69
2022-10-24T12:08:29.762Z,100322.56
2022-10-24T12:11:24.972Z,100329.56
2022-10-24T12:14:21.094Z,100333.56
2022-10-24T12:17:04.221Z,100329.75
2022-10-24T12:19:33.263Z,100337.38
2022-10-24T12:22:05.562Z,100327.25
2022-10-24T12:24:36.329Z,100331.25
2022-10-24T12:27:07.747Z,100337.78
2022-10-24T12:29:38.844Z,100341.34
2022-10-24T12:32:26.007Z,100355.94
2022-10-24T12:35:28.773Z,100341.56
2022-10-24T12:37:50.286Z,100337.56
2022-10-24T12:40:55.631Z,100353.22
2022-10-24T12:43:35.340Z,100364.63
2022-10-24T12:46:46.958Z,100357.44
2022-10-24T12:49:27.406Z,100346.47
2022-10-24T12:51:55.934Z,100359.97
2022-10-24T12:54:43.816Z,100368.88
2022-10-24T12:57:27.462Z,100369.91
2022-10-24T12:59:57.998Z,100353.19
2022-10-24T13:02:49.456Z,100368.41
2022-10-24T13:05:39.997Z,100380.88
2022-10-24T13:08:30.464Z,100384.44
2022-10-24T13:11:11.434Z,100376.84
2022-10-24T13:14:03.427Z,100393.09
2022-10-24T13:16:42.046Z,100389.78
2022-10-24T13:19:17.102Z,100402.84
2022-10-24T13:21:49.437Z,100402.22
2022-10-24T13:24:34.092Z,100384.91
2022-10-24T13:27:31.963Z,100396.47
2022-10-24T13:30:04.700Z,100401.34
2022-10-24T13:32:35.847Z,100394.16
2022-10-24T13:35:06.874Z,100408.59
2022-10-24T13:37:43.602Z,100412.56
2022-10-24T13:40:17.037Z,100408.75
2022-10-24T13:42:50.666Z,100422.72
2022-10-24T13:45:27.541Z,100420.63
2022-10-24T13:47:59.020Z,100437.09
2022-10-24T13:50:29.896Z,100412.56
2022-10-24T13:53:03.073Z,100414.47
2022-10-24T13:55:36.537Z,100412.16
2022-10-24T13:58:11.224Z,100420.19
2022-10-24T14:00:42.499Z,100427.16
2022-10-24T14:03:15.739Z,100433.69
2022-10-24T14:05:48.122Z,100430.13
2022-10-24T14:08:24.632Z,100434.53
2022-10-24T14:10:54.796Z,100432.22
2022-10-24T14:13:25.024Z,100427.81
2022-10-24T14:15:55.991Z,100436.47
2022-10-24T14:18:24.437Z,100435.19
2022-10-24T14:20:55.715Z,100435.78
2022-10-24T14:23:31.040Z,100441.97
2022-10-24T14:26:02.399Z,100444.03
2022-10-24T14:28:32.344Z,100451.06
2022-10-24T14:31:02.412Z,100460.13
2022-10-24T14:33:31.392Z,100448.50
2022-10-24T14:36:02.962Z,100442.78
2022-10-24T14:38:33.536Z,100467.09
2022-10-24T14:41:08.997Z,100464.56
2022-10-24T14:43:42.112Z,100439.63
2022-10-24T14:46:28.464Z,100458.84
2022-10-24T14:48:56.743Z,100463.09
2022-10-24T14:51:33.812Z,100462.25
2022-10-24T14:54:16.709Z,100471.78
2022-10-24T14:56:45.258Z,100460.78
2022-10-24T14:59:22.885Z,100465.84
2022-10-24T15:01:59.469Z,100474.88
2022-10-24T15:04:30.514Z,100485.84
2022-10-24T15:06:58.581Z,100484.63
2022-10-24T15:09:28.100Z,100478.63
2022-10-24T15:12:03.641Z,100491.63
2022-10-24T15:14:39.928Z,100484.84
2022-10-24T15:17:30.020Z,100504.59
2022-10-24T15:20:02.720Z,100504.31
2022-10-24T15:22:34.062Z,100502.66
2022-10-24T15:25:06.433Z,100498.41
2022-10-24T15:27:42.811Z,100513.97
2022-10-24T15:30:15.199Z,100510.72
2022-10-24T15:32:44.381Z,100506.84
2022-10-24T15:35:14.042Z,100512.78
2022-10-24T15:37:42.631Z,100522.97
2022-10-24T15:40:19.933Z,100538.66
2022-10-24T15:42:48.142Z,100526.78
2022-10-24T15:45:17.687Z,100524.06
2022-10-24T15:47:46.392Z,100529.78
2022-10-24T15:50:15.679Z,100536.25
2022-10-24T15:52:48.542Z,100536.06
2022-10-24T15:55:20.150Z,100534.53
2022-10-24T15:57:48.397Z,100535.44
2022-10-24T16:00:17.808Z,100531.41
2022-10-24T16:02:48.429Z,100538.88
2022-10-24T16:05:19.390Z,100548.34
2022-10-24T16:07:47.628Z,100560.63
2022-10-24T16:10:19.839Z,100561.72
2022-10-24T16:12:48.725Z,100558.97
2022-10-24T16:15:22.658Z,100552.63
2022-10-24T16:17:51.026Z,100568.69
2022-10-24T16:20:19.235Z,100556.66
2022-10-24T16:22:47.887Z,100567.75
2022-10-24T16:25:17.944Z,100581.69
2022-10-24T16:27:48.901Z,100574.56
2022-10-24T16:30:18.528Z,100575.88
2022-10-24T16:32:47.435Z,100574.59
2022-10-24T16:35:19.142Z,100575.09
2022-10-24T16:37:47.792Z,100584.59
2022-10-24T16:40:15.863Z,100579.66
2022-10-24T16:42:44.353Z,100591.59
2022-10-24T16:45:14.089Z,100586.31
2022-10-24T16:47:42.496Z,100603.75
2022-10-24T16:50:14.343Z,100603.56
2022-10-24T16:52:42.575Z,100606.16
2022-10-24T16:55:13.894Z,100613.19
2022-10-24T16:57:42.351Z,100616.06
2022-10-24T17:00:15.126Z,100621.88
2022-10-24T17:02:46.772Z,100613.72
2022-10-24T17:05:14.778Z,100623.84
2022-10-24T17:07:44.221Z,100616.63
2022-10-24T17:10:13.891Z,100632.78
2022-10-24T17:12:43.924Z,100629.56
2022-10-24T17:15:13.613Z,100632.97
2022-10-24T17:17:43.002Z,100629.84
2022-10-24T17:20:13.614Z,100635.03
2022-10-24T17:22:44.352Z,100636.84
2022-10-24T17:25:19.373Z,100636.22
2022-10-24T17:27:48.804Z,100638.97
2022-10-24T17:30:19.417Z,100641.56
2022-10-24T17:32:47.848Z,100646.97
2022-10-24T17:35:20.549Z,100642.97
2022-10-24T17:37:58.919Z,100658.38
2022-10-24T17:40:31.217Z,100654.84
2022-10-24T17:42:59.810Z,100656.53
2022-10-24T17:45:28.215Z,100667.84
2022-10-24T17:47:56.534Z,100663.59
2022-10-24T17:50:25.767Z,100663.19
2022-10-24T17:52:53.745Z,100665.34
2022-10-24T17:55:44.590Z,100656.00
2022-10-24T17:58:12.206Z,100657.72
2022-10-24T18:00:41.554Z,100660.16
2022-10-24T18:03:09.949Z,100659.75
2022-10-24T18:05:39.614Z,100670.22
2022-10-24T18:08:09.408Z,100671.66
2022-10-24T18:10:37.736Z,100677.66
2022-10-24T18:13:06.535Z,100669.44
2022-10-24T18:15:35.312Z,100680.84
2022-10-24T18:18:03.441Z,100678.38
2022-10-24T18:20:32.292Z,100680.34
2022-10-24T18:23:02.063Z,100680.56
2022-10-24T18:25:30.619Z,100676.91
2022-10-24T18:27:58.626Z,100686.16
2022-10-24T18:30:27.411Z,100676.91
2022-10-24T18:32:55.837Z,100688.09
2022-10-24T18:35:23.872Z,100689.41
2022-10-24T18:40:27.393Z,100695.16
2022-10-24T18:42:59.732Z,100706.78
2022-10-24T18:45:28.979Z,100704.72
2022-10-24T18:47:57.512Z,100707.69
2022-10-24T18:50:26.474Z,100705.22
2022-10-24T18:53:02.922Z,100713.22
2022-10-24T18:55:34.629Z,100708.22
2022-10-24T18:58:03.618Z,100709.28
2022-10-24T19:00:36.667Z,100708.28
2022-10-24T19:03:18.323Z,100700.63
2022-10-24T19:05:52.056Z,100707.75
2022-10-24T19:08:25.863Z,100703.00
2022-10-24T19:10:56.752Z,100703.34
2022-10-24T19:13:25.438Z,100705.00
2022-10-24T19:15:56.940Z,100702.59
2022-10-24T19:18:26.560Z,100709.97
2022-10-24T19:20:54.889Z,100713.63
2022-10-24T19:23:24.698Z,100714.34
2022-10-24T19:25:53.190Z,100711.81
2022-10-24T19:28:22.875Z,100715.75
2022-10-24T19:30:50.887Z,100713.78
2022-10-24T19:33:18.894Z,100714.41
2022-10-24T19:35:47.811Z,100718.84
2022-10-24T19:38:16.041Z,100720.84
2022-10-24T19:40:47.670Z,100721.38
2022-10-24T19:43:15.732Z,100726.47
2022-10-24T19:45:50.096Z,100727.16
2022-10-24T19:48:18.504Z,100729.22
2022-10-24T19:50:46.949Z,100722.59
2022-10-24T19:53:15.791Z,100720.31
2022-10-24T19:55:44.619Z,100718.59
2022-10-24T19:58:13.826Z,100719.84
2022-10-24T20:00:42.685Z,100718.78
2022-10-24T20:03:12.314Z,100715.28
2022-10-24T20:05:42.333Z,100720.56
2022-10-24T20:08:10.348Z,100723.03
2022-10-24T20:10:38.529Z,100721.38
2022-10-24T20:13:06.410Z,100725.38
2022-10-24T20:15:34.314Z,100730.78
2022-10-24T20:18:02.355Z,100722.47
2022-10-24T20:20:31.687Z,100725.19
2022-10-24T20:22:59.758Z,100727.31
2022-10-24T20:25:27.841Z,100725.75
2022-10-24T20:27:55.887Z,100732.88
2022-10-24T20:30:23.882Z,100735.84
2022-10-24T20:32:52.047Z,100737.56
2022-10-24T20:35:22.273Z,100733.41
2022-10-24T20:37:51.634Z,100731.31
2022-10-24T20:40:20.200Z,100732.03
2022-10-24T20:42:49.721Z,100738.03
2022-10-24T20:45:21.995Z,100740.94
2022-10-24T20:47:51.336Z,100751.94
2022-10-24T20:50:19.428Z,100748.13
2022-10-24T20:52:47.613Z,100757.31
2022-10-24T20:55:31.686Z,100763.81
2022-10-24T20:58:00.110Z,100761.97
2022-10-24T21:00:28.084Z,100761.50
2022-10-24T21:02:56.102Z,100768.50
2022-10-24T21:05:25.307Z,100770.84
2022-10-24T21:07:53.369Z,100770.94
2022-10-24T21:10:23.094Z,100770.94
2022-10-24T21:12:51.346Z,100776.19
2022-10-24T21:15:19.531Z,100773.31
2022-10-24T21:17:47.912Z,100784.94
2022-10-24T21:20:16.154Z,100780.78
2022-10-24T21:22:44.012Z,100783.34
2022-10-24T21:25:11.986Z,100783.91
2022-10-24T21:27:41.367Z,100787.59
2022-10-24T21:30:14.259Z,100788.53
2022-10-24T21:32:42.624Z,100789.69
2022-10-24T21:35:10.584Z,100798.53
2022-10-24T21:37:38.549Z,100792.13
2022-10-24T21:40:07.345Z,100793.63
2022-10-24T21:42:35.271Z,100792.03
2022-10-24T21:45:05.325Z,100798.72
2022-10-24T21:47:33.298Z,100806.28
2022-10-24T21:50:01.121Z,100801.66
2022-10-24T21:52:29.162Z,100799.88
2022-10-24T21:54:57.069Z,100802.50
2022-10-24T21:57:25.126Z,100799.22
2022-10-24T21:59:53.064Z,100805.72
2022-10-24T22:02:22.469Z,100801.56
2022-10-24T22:04:50.476Z,100802.88
2022-10-24T22:07:18.542Z,100810.63
2022-10-24T22:09:46.680Z,100819.22
2022-10-24T22:12:14.713Z,100816.50
2022-10-24T22:14:42.674Z,100823.59
2022-10-24T22:17:11.133Z,100836.38
2022-10-24T22:19:41.369Z,100829.97
2022-10-24T22:22:09.288Z,100825.66
2022-10-24T22:24:37.477Z,100829.56
2022-10-24T22:27:05.341Z,100829.31
2022-10-24T22:29:33.211Z,100835.72
2022-10-24T22:32:01.547Z,100834.41
2022-10-24T22:34:30.002Z,100841.69
2022-10-24T22:37:12.517Z,100843.47
2022-10-24T22:39:41.822Z,100845.78
2022-10-24T22:42:13.474Z,100844.97
2022-10-24T22:44:44.837Z,100841.91
2022-10-24T22:47:37.531Z,100840.34
2022-10-24T22:50:19.371Z,100849.03
2022-10-24T22:52:49.414Z,100848.28
2022-10-24T22:55:27.236Z,100846.31
2022-10-24T22:57:55.619Z,100846.41
2022-10-24T23:00:24.272Z,100849.91
2022-10-24T23:02:54.776Z,100852.16
2022-10-24T23:05:30.883Z,100851.84
2022-10-24T23:08:05.322Z,100857.91
2022-10-24T23:10:33.584Z,100862.53
2022-10-24T23:13:01.878Z,100865.78
2022-10-24T23:15:30.356Z,100868.53
2022-10-24T23:17:58.656Z,100874.50
2022-10-24T23:20:35.216Z,100871.88
2022-10-24T23:23:24.316Z,100879.84
2022-10-24T23:26:03.013Z,100880.75
2022-10-24T23:28:40.617Z,100875.59
2022-10-24T23:31:09.066Z,100878.25
2022-10-24T23:33:37.450Z,100877.28
2022-10-24T23:36:06.065Z,100885.19
2022-10-24T23:38:36.153Z,100887.53
2022-10-24T23:41:04.455Z,100884.25
2022-10-24T23:43:32.924Z,100891.50
2022-10-24T23:46:06.294Z,100883.50
2022-10-24T23:48:49.820Z,100886.66
2022-10-24T23:51:24.745Z,100880.13
2022-10-24T23:53:55.792Z,100885.31
2022-10-24T23:56:26.937Z,100885.50
2022-10-24T23:58:56.297Z,100890.19
